Time;durP1;ratioP1;P1;durP2;ratioP2;P2;SDS_P1;SDS_P2;PMS_P1;PMS_P2;Temp;Humidity;BMP_temperature;BMP_pressure;BME280_temperature;BME280_humidity;BME280_pressure;Samples;Min_cycle;Max_cycle;Signal;HPM_P1;HPM_P2
2022/01/29 00:00:04;;;;;;;16.27;11.32;;;;;;;-142.02;100.00;61695.09;5014381;28;20057;-75
2022/01/29 00:02:38;;;;;;;19.75;13.00;;;;;;;-142.02;100.00;61695.09;4981447;28;20108;-75
2022/01/29 00:05:05;;;;;;;17.85;11.68;;;;;;;-142.02;100.00;61695.09;4995406;28;20054;-74
2022/01/29 00:07:31;;;;;;;42.20;20.00;;;;;;;-142.02;100.00;61695.09;5013651;28;20060;-74
2022/01/29 00:10:02;;;;;;;17.33;9.60;;;;;;;-142.02;100.00;61695.09;4999236;28;20050;-75
2022/01/29 00:12:29;;;;;;;37.92;16.15;;;;;;;-142.02;100.00;61695.09;4965512;28;20217;-74
2022/01/29 00:14:55;;;;;;;7.90;6.60;;;;;;;-142.02;100.00;61695.09;4996797;28;20086;-74
2022/01/29 00:17:21;;;;;;;24.77;13.40;;;;;;;-142.02;100.00;61695.09;4983780;28;20096;-74
2022/01/29 00:19:47;;;;;;;11.10;7.72;;;;;;;-142.02;100.00;61695.09;5019044;28;20057;-75
2022/01/29 00:22:14;;;;;;;10.95;7.93;;;;;;;-142.02;100.00;61695.09;5021637;28;20060;-75
2022/01/29 00:24:40;;;;;;;19.98;13.23;;;;;;;-142.02;100.00;61695.09;5001185;28;20053;-73
2022/01/29 00:27:09;;;;;;;27.75;14.88;;;;;;;-142.02;100.00;61695.09;5019968;28;20552;-73
2022/01/29 00:29:38;;;;;;;35.92;17.75;;;;;;;-142.02;100.00;61695.09;4987070;28;20137;-73
2022/01/29 00:32:08;;;;;;;13.50;10.05;;;;;;;-142.02;100.00;61695.09;5020204;28;20050;-73
2022/01/29 00:34:35;;;;;;;14.02;11.07;;;;;;;-142.02;100.00;61695.09;5002389;28;20116;-74
2022/01/29 00:37:01;;;;;;;13.82;9.80;;;;;;;-142.02;100.00;61695.09;5000158;28;20053;-73
2022/01/29 00:39:27;;;;;;;37.15;17.15;;;;;;;-142.02;100.00;61695.09;4966306;28;20050;-74
2022/01/29 00:41:53;;;;;;;35.72;17.05;;;;;;;-142.02;100.00;61695.09;5018077;28;20112;-76
2022/01/29 00:44:19;;;;;;;11.40;8.98;;;;;;;-142.02;100.00;61695.09;4998063;28;20470;-75
2022/01/29 00:46:46;;;;;;;10.77;7.60;;;;;;;-142.02;100.00;61695.09;4997839;28;20061;-75
2022/01/29 00:49:12;;;;;;;20.20;10.88;;;;;;;-142.02;100.00;61695.09;5020249;28;20071;-75
2022/01/29 00:51:38;;;;;;;23.65;12.85;;;;;;;-142.02;100.00;61695.09;4999679;28;20108;-76
2022/01/29 00:54:04;;;;;;;20.10;11.07;;;;;;;-142.02;100.00;61695.09;4999796;28;20046;-75
2022/01/29 00:56:30;;;;;;;9.13;7.57;;;;;;;-142.02;100.00;61695.09;5017280;28;20064;-76
2022/01/29 00:58:56;;;;;;;14.80;12.02;;;;;;;-142.02;100.00;61695.09;4984795;28;20045;-74
2022/01/29 01:01:22;;;;;;;16.90;11.75;;;;;;;-142.02;100.00;61695.09;5017551;28;20046;-75
2022/01/29 01:03:48;;;;;;;30.83;14.82;;;;;;;-142.02;100.00;61695.09;5016875;28;20132;-74
2022/01/29 01:06:14;;;;;;;16.50;11.57;;;;;;;-142.02;100.00;61695.09;5000610;28;20052;-75
2022/01/29 01:08:40;;;;;;;15.70;8.77;;;;;;;-142.02;100.00;61695.09;4984768;28;20050;-75
2022/01/29 01:11:06;;;;;;;11.00;9.02;;;;;;;-142.02;100.00;61695.09;5000412;28;20072;-76
2022/01/29 01:13:33;;;;;;;14.88;10.18;;;;;;;-142.02;100.00;61695.09;4986765;28;20064;-75
2022/01/29 01:16:00;;;;;;;26.60;14.57;;;;;;;-142.02;100.00;61695.09;4986303;28;20066;-74
2022/01/29 01:18:26;;;;;;;15.77;11.82;;;;;;;-142.02;100.00;61695.09;5018264;28;20088;-75
2022/01/29 01:20:52;;;;;;;12.30;10.32;;;;;;;-142.02;100.00;61695.09;4968746;28;20050;-74
2022/01/29 01:23:18;;;;;;;6.95;6.35;;;;;;;-142.02;100.00;61695.09;5019990;28;20680;-75
2022/01/29 01:25:44;;;;;;;31.60;16.77;;;;;;;-142.02;100.00;61695.09;5001606;28;20033;-74
2022/01/29 01:28:10;;;;;;;23.13;12.40;;;;;;;-142.02;100.00;61695.09;5002081;28;20045;-75
2022/01/29 01:30:36;;;;;;;37.80;17.35;;;;;;;-142.02;100.00;61695.09;5001597;28;20046;-75
2022/01/29 01:33:05;;;;;;;12.43;9.95;;;;;;;-142.02;100.00;61695.09;5001257;28;20155;-74
2022/01/29 01:35:37;;;;;;;21.17;12.15;;;;;;;-142.02;100.00;61695.09;5001854;28;20076;-76
2022/01/29 01:38:20;;;;;;;17.13;12.85;;;;;;;-142.02;100.00;61695.09;5017727;28;20060;-75
2022/01/29 01:40:52;;;;;;;11.65;8.95;;;;;;;-142.02;100.00;61695.09;4998738;28;20037;-74
2022/01/29 01:43:18;;;;;;;;;;;;;;;-142.02;100.00;61695.09;5001815;28;20514;-74
2022/01/29 01:45:44;;;;;;;23.83;12.60;;;;;;;-142.02;100.00;61695.09;5016741;28;19928;-76
2022/01/29 01:48:10;;;;;;;22.92;13.27;;;;;;;-142.02;100.00;61695.09;4998299;28;20054;-76
2022/01/29 01:50:36;;;;;;;33.83;17.65;;;;;;;-142.02;100.00;61695.09;4999571;28;20049;-75
2022/01/29 01:53:03;;;;;;;37.03;18.05;;;;;;;-142.02;100.00;61695.09;4999303;28;20080;-75
2022/01/29 01:55:29;;;;;;;34.47;18.27;;;;;;;-142.02;100.00;61695.09;4984501;28;20053;-73
2022/01/29 01:57:57;;;;;;;45.83;19.05;;;;;;;-142.02;100.00;61695.09;4967545;28;20050;-74
2022/01/29 02:00:26;;;;;;;36.90;17.80;;;;;;;-142.02;100.00;61695.09;5019784;28;20192;-74
2022/01/29 02:02:52;;;;;;;32.70;16.65;;;;;;;-142.02;100.00;61695.09;4986414;28;20061;-74
2022/01/29 02:05:18;;;;;;;13.90;9.35;;;;;;;-142.02;100.00;61695.09;5004289;28;20042;-74
2022/01/29 02:07:45;;;;;;;32.95;17.10;;;;;;;-142.02;100.00;61695.09;5012985;28;20053;-73
2022/01/29 02:10:12;;;;;;;40.42;20.95;;;;;;;-142.02;100.00;61695.09;5030627;28;20088;-74
2022/01/29 02:12:48;;;;;;;49.83;24.52;;;;;;;-142.02;100.00;61695.09;5031084;28;20049;-74
2022/01/29 02:15:15;;;;;;;29.55;15.15;;;;;;;-142.02;100.00;61695.09;5029286;28;20104;-74
2022/01/29 02:17:41;;;;;;;19.10;11.10;;;;;;;-142.02;100.00;61695.09;4985123;28;20050;-75
2022/01/29 02:20:08;;;;;;;37.47;19.70;;;;;;;-142.02;100.00;61695.09;5017747;28;20741;-74
2022/01/29 02:22:35;;;;;;;47.70;21.77;;;;;;;-142.02;100.00;61695.09;5017583;28;20052;-73
2022/01/29 02:25:01;;;;;;;35.85;17.40;;;;;;;-142.02;100.00;61695.09;5018052;28;20050;-74
2022/01/29 02:27:27;;;;;;;43.17;18.55;;;;;;;-142.02;100.00;61695.09;5020022;28;20089;-74
2022/01/29 02:29:53;;;;;;;42.63;19.80;;;;;;;-142.02;100.00;61695.09;5000318;28;20159;-78
2022/01/29 02:32:19;;;;;;;20.70;12.27;;;;;;;-142.02;100.00;61695.09;5001263;28;20046;-76
2022/01/29 02:34:45;;;;;;;46.20;20.17;;;;;;;-142.02;100.00;61695.09;5014761;28;20116;-75
2022/01/29 02:37:11;;;;;;;41.58;21.08;;;;;;;-142.02;100.00;61695.09;4997083;28;20046;-76
2022/01/29 02:39:37;;;;;;;44.17;19.67;;;;;;;-142.02;100.00;61695.09;4980458;28;20049;-76
2022/01/29 02:42:04;;;;;;;43.03;20.80;;;;;;;-142.02;100.00;61695.09;5015001;28;20058;-76
2022/01/29 02:44:31;;;;;;;55.13;24.35;;;;;;;-142.02;100.00;61695.09;4986334;28;20144;-76
2022/01/29 02:47:13;;;;;;;56.95;24.30;;;;;;;-142.02;100.00;61695.09;5005824;28;20042;-77
2022/01/29 02:49:39;;;;;;;44.13;21.70;;;;;;;-142.02;100.00;61695.09;5025863;28;20080;-76
2022/01/29 02:52:05;;;;;;;44.42;20.27;;;;;;;-142.02;100.00;61695.09;4988045;28;20053;-75
2022/01/29 02:54:34;;;;;;;46.65;21.77;;;;;;;-142.02;100.00;61695.09;5017755;28;20478;-74
2022/01/29 02:57:00;;;;;;;36.40;17.40;;;;;;;-142.02;100.00;61695.09;4986329;28;20042;-75
2022/01/29 02:59:26;;;;;;;28.70;16.63;;;;;;;-142.02;100.00;61695.09;4981989;28;20042;-76
2022/01/29 03:01:52;;;;;;;41.30;18.35;;;;;;;-142.02;100.00;61695.09;4998122;28;20077;-76
2022/01/29 03:04:18;;;;;;;51.25;23.08;;;;;;;-142.02;100.00;61695.09;4993383;28;20053;-76
2022/01/29 03:06:44;;;;;;;38.60;19.80;;;;;;;-142.02;100.00;61695.09;4991405;28;20096;-75
2022/01/29 03:09:11;;;;;;;31.60;17.02;;;;;;;-142.02;100.00;61695.09;5022427;28;20533;-77
2022/01/29 03:11:37;;;;;;;55.45;24.25;;;;;;;-142.02;100.00;61695.09;5011851;28;20520;-75
2022/01/29 03:14:03;;;;;;;9.80;8.32;;;;;;;-142.02;100.00;61695.09;5026048;28;20124;-75
2022/01/29 03:16:29;;;;;;;26.48;15.65;;;;;;;-142.02;100.00;61695.09;5004433;28;20045;-74
2022/01/29 03:18:55;;;;;;;34.72;16.95;;;;;;;-142.02;100.00;61695.09;5020940;28;20473;-74
2022/01/29 03:21:21;;;;;;;52.63;23.60;;;;;;;-142.02;100.00;61695.09;5000579;28;20957;-74
2022/01/29 03:23:47;;;;;;;49.85;22.40;;;;;;;-142.02;100.00;61695.09;5000564;28;20114;-74
2022/01/29 03:26:13;;;;;;;50.38;22.15;;;;;;;-142.02;100.00;61695.09;5003198;28;20050;-74
2022/01/29 03:28:39;;;;;;;59.85;24.00;;;;;;;-142.02;100.00;61695.09;5024916;28;20133;-76
2022/01/29 03:31:05;;;;;;;50.05;22.50;;;;;;;-142.02;100.00;61695.09;5009365;28;20046;-75
2022/01/29 03:33:31;;;;;;;45.83;21.95;;;;;;;-142.02;100.00;61695.09;5018357;28;20050;-75
2022/01/29 03:35:57;;;;;;;46.15;21.92;;;;;;;-142.02;100.00;61695.09;4988371;28;20058;-75
2022/01/29 03:38:24;;;;;;;56.22;27.02;;;;;;;-142.02;100.00;61695.09;5013487;28;20065;-75
2022/01/29 03:40:51;;;;;;;58.60;27.77;;;;;;;-142.02;100.00;61695.09;5026186;28;20088;-75
2022/01/29 03:43:26;;;;;;;52.85;25.60;;;;;;;-142.02;100.00;61695.09;5025566;28;20065;-77
2022/01/29 03:45:52;;;;;;;56.25;28.38;;;;;;;-142.02;100.00;61695.09;5010619;28;20102;-75
2022/01/29 03:48:18;;;;;;;51.25;21.35;;;;;;;-142.02;100.00;61695.09;5026673;28;20046;-75
2022/01/29 03:50:44;;;;;;;69.93;32.22;;;;;;;-142.02;100.00;61695.09;5024904;28;20042;-75
2022/01/29 03:53:10;;;;;;;57.88;28.55;;;;;;;-142.02;100.00;61695.09;4994269;28;20050;-76
2022/01/29 03:55:36;;;;;;;52.28;22.70;;;;;;;-142.02;100.00;61695.09;5025871;28;20056;-74
2022/01/29 03:58:02;;;;;;;46.33;22.45;;;;;;;-142.02;100.00;61695.09;4997460;28;20089;-74
2022/01/29 04:00:28;;;;;;;57.40;23.90;;;;;;;-142.02;100.00;61695.09;4990625;28;20525;-75
2022/01/29 04:02:54;;;;;;;53.83;24.88;;;;;;;-142.02;100.00;61695.09;5017980;28;20060;-75
2022/01/29 04:05:20;;;;;;;48.80;23.88;;;;;;;-142.02;100.00;61695.09;5026260;28;20049;-74
2022/01/29 04:07:47;;;;;;;55.60;23.95;;;;;;;-142.02;100.00;61695.09;5025075;28;20058;-76
2022/01/29 04:10:13;;;;;;;67.97;29.48;;;;;;;-142.02;100.00;61695.09;5023430;28;20119;-75
2022/01/29 04:12:44;;;;;;;74.72;32.50;;;;;;;-142.02;100.00;61695.09;5025636;28;20133;-75
2022/01/29 04:15:11;;;;;;;50.50;21.50;;;;;;;-142.02;100.00;61695.09;5026965;28;20046;-74
2022/01/29 04:17:37;;;;;;;53.15;24.65;;;;;;;-142.02;100.00;61695.09;5027689;28;20597;-76
2022/01/29 04:20:04;;;;;;;63.83;25.80;;;;;;;-142.02;100.00;61695.09;5030593;28;20070;-74
2022/01/29 04:22:30;;;;;;;56.85;26.15;;;;;;;-142.02;100.00;61695.09;5016143;28;20057;-74
2022/01/29 04:24:56;;;;;;;30.20;16.13;;;;;;;-142.02;100.00;61695.09;5014379;28;20053;-73
2022/01/29 04:27:31;;;;;;;60.00;28.52;;;;;;;-142.02;100.00;61695.09;5002177;28;20062;-74
2022/01/29 04:30:00;;;;;;;62.35;28.63;;;;;;;-142.02;100.00;61695.09;5000979;28;20042;-74
2022/01/29 04:32:45;;;;;;;54.55;27.65;;;;;;;-142.02;100.00;61695.09;4986295;28;20042;-75
2022/01/29 04:35:11;;;;;;;77.97;36.50;;;;;;;-142.02;100.00;61695.09;4992446;28;20061;-73
2022/01/29 04:37:37;;;;;;;50.63;24.20;;;;;;;-142.02;100.00;61695.09;5006149;28;20050;-74
2022/01/29 04:40:03;;;;;;;60.83;26.85;;;;;;;-142.02;100.00;61695.09;4974769;28;20065;-75
2022/01/29 04:42:30;;;;;;;69.78;28.92;;;;;;;-142.02;100.00;61695.09;4988929;28;20133;-75
2022/01/29 04:44:55;;;;;;;56.65;25.00;;;;;;;-142.02;100.00;61695.09;5002846;28;20064;-74
2022/01/29 04:47:23;;;;;;;67.78;28.08;;;;;;;-142.02;100.00;61695.09;5000853;28;20499;-73
2022/01/29 04:49:49;;;;;;;64.03;30.88;;;;;;;-142.02;100.00;61695.09;5004785;28;20042;-74
2022/01/29 04:52:14;;;;;;;61.38;26.73;;;;;;;-142.02;100.00;61695.09;5001917;28;20051;-75
2022/01/29 04:54:40;;;;;;;51.85;24.05;;;;;;;-142.02;100.00;61695.09;4986649;28;20077;-75
2022/01/29 04:57:06;;;;;;;66.20;30.17;;;;;;;-142.02;100.00;61695.09;4988391;28;20089;-75
2022/01/29 04:59:32;;;;;;;58.83;26.90;;;;;;;-142.02;100.00;61695.09;5004131;28;20519;-75
2022/01/29 05:01:59;;;;;;;67.22;29.42;;;;;;;-142.02;100.00;61695.09;4986077;28;20110;-74
2022/01/29 05:04:25;;;;;;;19.35;10.27;;;;;;;-142.02;100.00;61695.09;5001719;28;20038;-75
2022/01/29 05:06:51;;;;;;;67.65;26.80;;;;;;;-142.02;100.00;61695.09;5004520;28;20061;-75
2022/01/29 05:09:17;;;;;;;69.13;29.85;;;;;;;-142.02;100.00;61695.09;4990165;28;20050;-76
2022/01/29 05:11:46;;;;;;;61.65;28.35;;;;;;;-142.02;100.00;61695.09;5004674;28;20050;-75
2022/01/29 05:14:21;;;;;;;80.72;35.30;;;;;;;-142.02;100.00;61695.09;5005979;28;20101;-77
2022/01/29 05:27:33;;;;;;;68.45;29.63;;;;;;;-142.02;100.00;61695.09;5013066;28;20538;-73
2022/01/29 05:29:59;;;;;;;31.45;14.38;;;;;;;-142.02;100.00;61695.09;5001871;28;20534;-73
2022/01/29 05:32:25;;;;;;;55.13;23.88;;;;;;;-142.02;100.00;61695.09;4979083;28;20046;-73
2022/01/29 05:34:51;;;;;;;55.15;25.17;;;;;;;-142.02;100.00;61695.09;4995727;28;20100;-73
2022/01/29 05:37:18;;;;;;;51.15;23.20;;;;;;;-142.02;100.00;61695.09;5013885;28;20505;-71
2022/01/29 05:39:44;;;;;;;26.38;14.30;;;;;;;-142.02;100.00;61695.09;4978391;28;20045;-72
2022/01/29 05:42:10;;;;;;;54.13;23.60;;;;;;;-142.02;100.00;61695.09;5011524;28;20056;-72
2022/01/29 05:44:36;;;;;;;58.35;23.27;;;;;;;-142.02;100.00;61695.09;5011166;28;20077;-73
2022/01/29 05:47:02;;;;;;;49.45;22.08;;;;;;;-142.02;100.00;61695.09;4961379;28;20041;-72
2022/01/29 05:49:29;;;;;;;65.00;29.50;;;;;;;-142.02;100.00;61695.09;4993447;28;20045;-72
2022/01/29 05:51:55;;;;;;;57.33;25.33;;;;;;;-142.02;100.00;61695.09;5009814;28;20509;-74
2022/01/29 05:54:21;;;;;;;61.40;26.90;;;;;;;-142.02;100.00;61695.09;5001182;28;20057;-72
2022/01/29 05:56:47;;;;;;;57.70;26.48;;;;;;;-142.02;100.00;61695.09;5000421;28;20050;-73
2022/01/29 05:59:13;;;;;;;37.85;19.13;;;;;;;-142.02;100.00;61695.09;5010824;28;20082;-72
2022/01/29 06:01:39;;;;;;;62.70;27.98;;;;;;;-142.02;100.00;61695.09;5017831;28;20053;-72
2022/01/29 06:04:06;;;;;;;58.15;25.65;;;;;;;-142.02;100.00;61695.09;5010662;28;20429;-72
2022/01/29 06:06:32;;;;;;;64.65;29.77;;;;;;;-142.02;100.00;61695.09;5004103;28;20050;-71
2022/01/29 06:09:01;;;;;;;65.57;30.08;;;;;;;-142.02;100.00;61695.09;4996480;28;20054;-70
2022/01/29 06:11:28;;;;;;;53.80;25.00;;;;;;;-142.02;100.00;61695.09;4976888;28;20137;-72
2022/01/29 06:13:54;;;;;;;53.13;26.40;;;;;;;-142.02;100.00;61695.09;5030521;28;20072;-71
2022/01/29 06:16:20;;;;;;;57.00;26.42;;;;;;;-142.02;100.00;61695.09;5031431;28;20044;-71
2022/01/29 06:18:46;;;;;;;59.60;26.08;;;;;;;-142.02;100.00;61695.09;5013415;28;20053;-71
2022/01/29 06:21:14;;;;;;;67.05;29.02;;;;;;;-142.02;100.00;61695.09;5013771;28;20085;-71
2022/01/29 06:23:40;;;;;;;56.00;27.45;;;;;;;-142.02;100.00;61695.09;5012931;28;20104;-71
2022/01/29 06:26:09;;;;;;;58.80;25.40;;;;;;;-142.02;100.00;61695.09;4978845;28;20104;-72
2022/01/29 06:28:36;;;;;;;59.47;29.35;;;;;;;-142.02;100.00;61695.09;4974387;28;20065;-72
2022/01/29 06:31:05;;;;;;;58.47;25.92;;;;;;;-142.02;100.00;61695.09;4977083;28;20102;-71
2022/01/29 06:33:32;;;;;;;48.47;24.15;;;;;;;-142.02;100.00;61695.09;4960293;28;20046;-72
2022/01/29 06:35:58;;;;;;;69.00;29.83;;;;;;;-142.02;100.00;61695.09;4960266;28;20058;-71
2022/01/29 06:38:24;;;;;;;60.92;26.83;;;;;;;-142.02;100.00;61695.09;4975780;28;20050;-71
2022/01/29 06:40:51;;;;;;;54.65;26.63;;;;;;;-142.02;100.00;61695.09;4976417;28;20079;-72
2022/01/29 06:43:17;;;;;;;59.55;25.90;;;;;;;-142.02;100.00;61695.09;4997722;28;20045;-72
2022/01/29 06:45:44;;;;;;;57.13;26.75;;;;;;;-142.02;100.00;61695.09;4984807;28;20046;-70
2022/01/29 06:48:11;;;;;;;56.95;27.30;;;;;;;-142.02;100.00;61695.09;4994194;28;20050;-71
2022/01/29 06:50:37;;;;;;;51.38;24.75;;;;;;;-142.02;100.00;61695.09;4977197;28;20046;-71
2022/01/29 06:53:04;;;;;;;50.35;24.92;;;;;;;-142.02;100.00;61695.09;5010869;28;20050;-71
2022/01/29 06:55:30;;;;;;;50.50;24.15;;;;;;;-142.02;100.00;61695.09;5008132;28;20053;-71
2022/01/29 06:57:56;;;;;;;56.50;26.02;;;;;;;-142.02;100.00;61695.09;4992342;28;20557;-75
2022/01/29 07:00:22;;;;;;;51.60;24.95;;;;;;;-142.02;100.00;61695.09;5001771;28;20607;-72
2022/01/29 07:02:49;;;;;;;52.90;26.10;;;;;;;-142.02;100.00;61695.09;5020417;28;20049;-72
2022/01/29 07:05:15;;;;;;;57.38;26.52;;;;;;;-142.02;100.00;61695.09;5029129;28;20398;-71
2022/01/29 07:07:41;;;;;;;49.92;23.83;;;;;;;-142.02;100.00;61695.09;5019693;28;20054;-72
2022/01/29 07:10:09;;;;;;;59.92;24.63;;;;;;;-142.02;100.00;61695.09;4993817;28;20052;-72
2022/01/29 07:12:39;;;;;;;44.60;22.55;;;;;;;-142.02;100.00;61695.09;5009612;28;20549;-72
2022/01/29 07:15:09;;;;;;;50.28;24.63;;;;;;;-142.02;100.00;61695.09;4980595;28;20148;-71
2022/01/29 07:17:35;;;;;;;52.20;23.80;;;;;;;-142.02;100.00;61695.09;4988448;28;20046;-72
2022/01/29 07:20:01;;;;;;;39.42;19.83;;;;;;;-142.02;100.00;61695.09;4988472;28;20132;-72
2022/01/29 07:22:29;;;;;;;47.10;20.88;;;;;;;-142.02;100.00;61695.09;4997756;28;20061;-73
2022/01/29 07:24:55;;;;;;;51.50;24.88;;;;;;;-142.02;100.00;61695.09;4990845;28;20073;-72
2022/01/29 07:27:22;;;;;;;56.85;26.00;;;;;;;-142.02;100.00;61695.09;5011764;28;20096;-71
2022/01/29 07:29:48;;;;;;;58.40;27.42;;;;;;;-142.02;100.00;61695.09;4994283;28;20042;-72
2022/01/29 07:32:14;;;;;;;51.63;24.65;;;;;;;-142.02;100.00;61695.09;5011823;28;20192;-72
2022/01/29 07:34:40;;;;;;;52.55;25.90;;;;;;;-142.02;100.00;61695.09;5011950;28;20489;-72
2022/01/29 07:37:06;;;;;;;59.20;28.38;;;;;;;-142.02;100.00;61695.09;4995765;28;20050;-72
2022/01/29 07:39:32;;;;;;;46.22;24.38;;;;;;;-142.02;100.00;61695.09;5014410;28;20048;-71
2022/01/29 07:41:59;;;;;;;56.50;26.58;;;;;;;-142.02;100.00;61695.09;5015727;28;20072;-72
2022/01/29 07:44:26;;;;;;;56.72;26.83;;;;;;;-142.02;100.00;61695.09;5016807;28;20041;-71
2022/01/29 07:46:52;;;;;;;45.67;21.63;;;;;;;-142.02;100.00;61695.09;5015834;28;20056;-72
2022/01/29 07:49:18;;;;;;;54.95;24.48;;;;;;;-142.02;100.00;61695.09;5016476;28;20046;-71
2022/01/29 07:51:44;;;;;;;56.28;25.90;;;;;;;-142.02;100.00;61695.09;4983282;28;20536;-72
2022/01/29 07:54:12;;;;;;;35.38;17.17;;;;;;;-142.02;100.00;61695.09;5016990;28;20068;-71
2022/01/29 07:56:38;;;;;;;60.22;25.13;;;;;;;-142.02;100.00;61695.09;5019349;28;20084;-71
2022/01/29 07:59:04;;;;;;;43.22;20.55;;;;;;;-142.02;100.00;61695.09;5017833;28;20128;-71
2022/01/29 08:01:30;;;;;;;44.00;23.30;;;;;;;-142.02;100.00;61695.09;5017525;28;20057;-72
2022/01/29 08:03:56;;;;;;;52.25;23.38;;;;;;;-142.02;100.00;61695.09;4999167;28;20072;-71
2022/01/29 08:06:23;;;;;;;47.55;24.00;;;;;;;-142.02;100.00;61695.09;5015034;28;20041;-71
2022/01/29 08:08:52;;;;;;;43.03;20.85;;;;;;;-142.02;100.00;61695.09;4995837;28;20053;-71
2022/01/29 08:11:18;;;;;;;46.03;22.13;;;;;;;-142.02;100.00;61695.09;4997148;28;20041;-71
2022/01/29 08:13:46;;;;;;;46.90;23.23;;;;;;;-142.02;100.00;61695.09;5014410;28;20137;-72
2022/01/29 08:16:13;;;;;;;58.03;29.25;;;;;;;-142.02;100.00;61695.09;4996204;28;20134;-72
2022/01/29 08:18:41;;;;;;;47.05;22.65;;;;;;;-142.02;100.00;61695.09;4963234;28;20054;-71
2022/01/29 08:21:08;;;;;;;50.03;24.10;;;;;;;-142.02;100.00;61695.09;5013305;28;20057;-72
2022/01/29 08:23:34;;;;;;;51.33;25.73;;;;;;;-142.02;100.00;61695.09;5012821;28;20487;-71
2022/01/29 08:26:01;;;;;;;54.80;24.35;;;;;;;-142.02;100.00;61695.09;4995813;28;20046;-71
2022/01/29 08:28:27;;;;;;;43.45;21.08;;;;;;;-142.02;100.00;61695.09;5013052;28;20085;-71
2022/01/29 08:30:53;;;;;;;47.80;23.27;;;;;;;-142.02;100.00;61695.09;4962835;28;20137;-71
2022/01/29 08:33:19;;;;;;;52.15;23.80;;;;;;;-142.02;100.00;61695.09;5012903;28;20744;-71
2022/01/29 08:35:46;;;;;;;37.83;19.00;;;;;;;-142.02;100.00;61695.09;4995114;28;20066;-71
2022/01/29 08:38:13;;;;;;;56.42;25.67;;;;;;;-142.02;100.00;61695.09;4978568;28;20041;-72
2022/01/29 08:40:40;;;;;;;53.80;25.27;;;;;;;-142.02;100.00;61695.09;5012649;28;20052;-72
2022/01/29 08:43:06;;;;;;;52.60;25.23;;;;;;;-142.02;100.00;61695.09;4994899;28;20145;-71
2022/01/29 08:45:32;;;;;;;52.40;23.52;;;;;;;-142.02;100.00;61695.09;4995185;28;20433;-72
2022/01/29 08:47:58;;;;;;;53.85;26.48;;;;;;;-142.02;100.00;61695.09;4978916;28;20134;-72
2022/01/29 08:50:24;;;;;;;54.88;24.55;;;;;;;-142.02;100.00;61695.09;4979341;28;20623;-72
2022/01/29 08:52:50;;;;;;;52.38;24.00;;;;;;;-142.02;100.00;61695.09;5012086;28;20525;-72
2022/01/29 08:55:16;;;;;;;50.83;24.38;;;;;;;-142.02;100.00;61695.09;5013167;28;20141;-72
2022/01/29 08:57:43;;;;;;;56.08;25.13;;;;;;;-142.02;100.00;61695.09;5012982;28;20054;-72
2022/01/29 09:00:09;;;;;;;48.92;24.20;;;;;;;-142.02;100.00;61695.09;4994942;28;20063;-72
2022/01/29 09:02:36;;;;;;;43.30;23.48;;;;;;;-142.02;100.00;61695.09;4994450;28;20065;-72
2022/01/29 09:05:02;;;;;;;59.30;27.17;;;;;;;-142.02;100.00;61695.09;5012145;28;20113;-72
2022/01/29 09:07:29;;;;;;;54.38;25.48;;;;;;;-142.02;100.00;61695.09;5012332;28;20584;-72
2022/01/29 09:09:55;;;;;;;57.60;25.70;;;;;;;-142.02;100.00;61695.09;4978367;28;20050;-72
2022/01/29 09:12:21;;;;;;;52.15;24.67;;;;;;;-142.02;100.00;61695.09;4994446;28;20141;-72
2022/01/29 09:14:48;;;;;;;31.88;17.48;;;;;;;-142.02;100.00;61695.09;4994198;28;20042;-72
2022/01/29 09:17:14;;;;;;;32.45;16.45;;;;;;;-142.02;100.00;61695.09;4978516;28;20461;-72
2022/01/29 09:19:40;;;;;;;23.92;14.18;;;;;;;-142.02;100.00;61695.09;4997993;28;20469;-72
2022/01/29 09:22:06;;;;;;;56.47;24.40;;;;;;;-142.02;100.00;61695.09;5024546;28;20050;-72
2022/01/29 09:24:32;;;;;;;72.00;28.50;;;;;;;-142.02;100.00;61695.09;4996639;28;20140;-72
2022/01/29 09:26:58;;;;;;;42.97;19.20;;;;;;;-142.02;100.00;61695.09;4967489;28;20049;-72
2022/01/29 09:29:25;;;;;;;50.75;25.25;;;;;;;-142.02;100.00;61695.09;5011969;28;20096;-72
2022/01/29 09:31:51;;;;;;;56.03;25.73;;;;;;;-142.02;100.00;61695.09;4994515;28;20046;-72
2022/01/29 09:34:17;;;;;;;58.03;28.80;;;;;;;-142.02;100.00;61695.09;5012128;28;20046;-71
2022/01/29 09:36:43;;;;;;;47.05;22.48;;;;;;;-142.02;100.00;61695.09;5013035;28;20104;-72
2022/01/29 09:39:10;;;;;;;56.83;25.40;;;;;;;-142.02;100.00;61695.09;5027772;28;20421;-74
2022/01/29 09:41:37;;;;;;;51.00;24.10;;;;;;;-142.02;100.00;61695.09;4983876;28;20049;-72
2022/01/29 09:44:03;;;;;;;50.22;23.85;;;;;;;-142.02;100.00;61695.09;5015820;28;20091;-72
2022/01/29 09:46:30;;;;;;;51.40;24.85;;;;;;;-142.02;100.00;61695.09;5033599;28;20050;-72
2022/01/29 09:48:57;;;;;;;45.85;21.35;;;;;;;-142.02;100.00;61695.09;4999090;28;20505;-72
2022/01/29 09:51:23;;;;;;;41.83;20.70;;;;;;;-142.02;100.00;61695.09;5015805;28;20041;-71
2022/01/29 09:53:50;;;;;;;57.35;27.95;;;;;;;-142.02;100.00;61695.09;4982472;28;20053;-71
2022/01/29 09:56:16;;;;;;;55.15;24.30;;;;;;;-142.02;100.00;61695.09;5008562;28;20057;-72
2022/01/29 09:59:01;;;;;;;51.67;26.40;;;;;;;-142.02;100.00;61695.09;4981675;28;20046;-71
2022/01/29 10:01:30;;;;;;;58.00;27.15;;;;;;;-142.02;100.00;61695.09;4985855;28;20061;-71
2022/01/29 10:04:03;;;;;;;56.63;26.42;;;;;;;-142.02;100.00;61695.09;4988879;28;20055;-72
2022/01/29 10:06:30;;;;;;;31.00;15.95;;;;;;;-142.02;100.00;61695.09;5007046;28;20064;-71
2022/01/29 10:08:56;;;;;;;52.05;25.52;;;;;;;-142.02;100.00;61695.09;4976120;28;20460;-71
2022/01/29 10:11:24;;;;;;;63.00;28.52;;;;;;;-142.02;100.00;61695.09;5005772;28;20113;-71
2022/01/29 10:13:51;;;;;;;49.47;24.65;;;;;;;-142.02;100.00;61695.09;5009393;28;20419;-72
2022/01/29 10:16:22;;;;;;;53.42;26.55;;;;;;;-142.02;100.00;61695.09;4990184;28;20655;-71
2022/01/29 10:19:01;;;;;;;65.80;26.83;;;;;;;-142.02;100.00;61695.09;5003762;28;20045;-72
2022/01/29 10:21:29;;;;;;;35.38;16.85;;;;;;;-142.02;100.00;61695.09;4989268;28;20050;-72
2022/01/29 10:24:02;;;;;;;48.13;22.63;;;;;;;-142.02;100.00;61695.09;4950112;28;20565;-72
2022/01/29 10:26:33;;;;;;;42.05;18.90;;;;;;;-142.02;100.00;61695.09;4975845;28;20185;-71
2022/01/29 10:28:59;;;;;;;36.05;19.00;;;;;;;-142.02;100.00;61695.09;4968921;28;20429;-72
2022/01/29 10:31:29;;;;;;;61.53;31.08;;;;;;;-142.02;100.00;61695.09;4971567;28;20189;-71
2022/01/29 10:33:57;;;;;;;43.42;19.23;;;;;;;-142.02;100.00;61695.09;4983749;28;20054;-71
2022/01/29 10:36:25;;;;;;;61.20;29.27;;;;;;;-142.02;100.00;61695.09;4952673;28;20082;-71
2022/01/29 10:38:52;;;;;;;73.30;31.98;;;;;;;-142.02;100.00;61695.09;4971097;28;20081;-71
2022/01/29 10:41:24;;;;;;;65.90;26.00;;;;;;;-142.02;100.00;61695.09;4980774;28;20049;-71
2022/01/29 10:44:09;;;;;;;76.85;32.50;;;;;;;-142.02;100.00;61695.09;4985651;28;20046;-71
2022/01/29 10:46:37;;;;;;;64.85;27.73;;;;;;;-142.02;100.00;61695.09;4989266;28;20046;-71
2022/01/29 10:49:03;;;;;;;75.47;32.05;;;;;;;-142.02;100.00;61695.09;4989018;28;20155;-71
2022/01/29 10:51:29;;;;;;;58.28;25.65;;;;;;;-142.02;100.00;61695.09;4990890;28;20054;-71
2022/01/29 10:54:14;;;;;;;55.55;24.83;;;;;;;-142.02;100.00;61695.09;4988866;28;20050;-71
2022/01/29 10:56:59;;;;;;;71.35;32.80;;;;;;;-142.02;100.00;61695.09;4973270;28;20050;-72
2022/01/29 10:59:27;;;;;;;75.70;32.33;;;;;;;-142.02;100.00;61695.09;4984699;28;20057;-71
2022/01/29 11:02:01;;;;;;;73.60;34.85;;;;;;;-142.02;100.00;61695.09;4993912;28;20050;-72
2022/01/29 11:04:29;;;;;;;65.65;28.30;;;;;;;-142.02;100.00;61695.09;4988369;28;20058;-71